Time;durP1;ratioP1;P1;durP2;ratioP2;P2;SDS_P1;SDS_P2;PMS_P1;PMS_P2;Temp;Humidity;BMP_temperature;BMP_pressure;BME280_temperature;BME280_humidity;BME280_pressure;Samples;Min_cycle;Max_cycle;Signal;HPM_P1;HPM_P2
2021/11/16 00:01:52;;;;;;;0.50;0.47;;;;;;;8.75;100.00;100921.16;5004106;28;20496;-50
2021/11/16 00:04:18;;;;;;;2.00;1.70;;;;;;;8.79;100.00;100916.75;4999782;28;20448;-50
2021/11/16 00:06:51;;;;;;;0.30;0.20;;;;;;;8.64;100.00;100928.38;5002384;28;20528;-50
2021/11/16 00:09:18;;;;;;;0.30;0.20;;;;;;;8.46;100.00;100924.13;5006473;28;20942;-50
2021/11/16 00:11:46;;;;;;;0.30;0.30;;;;;;;8.54;100.00;100927.59;5004593;28;20456;-50
2021/11/16 00:14:15;;;;;;;0.70;0.70;;;;;;;8.51;100.00;100922.34;4999538;28;20479;-50
2021/11/16 00:16:43;;;;;;;0.30;0.20;;;;;;;8.60;100.00;100924.88;5000630;28;20480;-50
2021/11/16 00:19:15;;;;;;;0.30;0.20;;;;;;;8.69;100.00;100925.69;5006578;28;20830;-50
2021/11/16 00:21:45;;;;;;;0.30;0.20;;;;;;;8.68;100.00;100915.97;5006307;28;20444;-50
2021/11/16 00:24:15;;;;;;;0.50;0.47;;;;;;;8.67;100.00;100920.41;4983436;28;20538;-49
2021/11/16 00:26:42;;;;;;;0.30;0.20;;;;;;;8.48;100.00;100924.09;4999184;28;20485;-49
2021/11/16 00:29:09;;;;;;;0.70;0.70;;;;;;;8.42;100.00;100927.72;5004823;28;20613;-50
2021/11/16 00:31:36;;;;;;;0.30;0.20;;;;;;;8.60;100.00;100927.53;5008180;28;20448;-50
2021/11/16 00:34:03;;;;;;;0.30;0.20;;;;;;;8.38;100.00;100927.75;5004329;28;20473;-50
2021/11/16 00:36:31;;;;;;;1.27;1.27;;;;;;;8.30;100.00;100920.72;5005925;28;20452;-50
2021/11/16 00:38:59;;;;;;;0.30;0.20;;;;;;;8.37;100.00;100924.25;5001795;28;20475;-50
2021/11/16 00:41:26;;;;;;;0.30;0.20;;;;;;;8.31;100.00;100925.13;4999347;28;20453;-50
2021/11/16 00:43:53;;;;;;;1.80;1.70;;;;;;;8.49;100.00;100924.09;5003419;28;20493;-50
2021/11/16 00:46:21;;;;;;;0.30;0.20;;;;;;;8.54;100.00;100938.19;5006217;28;20503;-50
2021/11/16 00:48:48;;;;;;;1.13;1.13;;;;;;;8.56;100.00;100930.22;5002325;28;20452;-50
2021/11/16 00:51:14;;;;;;;0.30;0.20;;;;;;;8.69;100.00;100925.69;4999343;28;20873;-50
2021/11/16 00:53:41;;;;;;;0.30;0.20;;;;;;;8.59;100.00;100928.41;5002375;28;20523;-50
2021/11/16 00:56:10;;;;;;;0.30;0.20;;;;;;;8.75;100.00;100933.56;5009065;28;20477;-50
2021/11/16 00:58:37;;;;;;;0.30;0.20;;;;;;;8.28;100.00;100925.16;5007133;28;20449;-50
2021/11/16 01:01:05;;;;;;;0.30;0.23;;;;;;;8.31;100.00;100929.53;5003782;28;20452;-50
2021/11/16 01:03:32;;;;;;;0.83;0.83;;;;;;;8.31;100.00;100927.78;5005300;28;20592;-50
2021/11/16 01:05:59;;;;;;;0.70;0.70;;;;;;;8.31;100.00;100933.06;5009643;28;20870;-50
2021/11/16 01:08:26;;;;;;;0.30;0.20;;;;;;;8.32;100.00;100926.88;5007552;28;20490;-50
2021/11/16 01:10:54;;;;;;;0.40;0.40;;;;;;;8.34;100.00;100926.88;5013406;28;20458;-50
2021/11/16 01:13:24;;;;;;;0.53;0.53;;;;;;;8.33;100.00;100925.97;5004455;28;20532;-51
2021/11/16 01:15:51;;;;;;;2.37;2.23;;;;;;;8.45;100.00;100938.28;5009349;28;20834;-50
2021/11/16 01:18:21;;;;;;;0.30;0.20;;;;;;;8.26;100.00;100926.06;5008912;28;20571;-49
2021/11/16 01:20:48;;;;;;;0.30;0.30;;;;;;;8.48;100.00;100921.47;5009280;28;20453;-50
2021/11/16 01:23:15;;;;;;;0.30;0.20;;;;;;;8.38;100.00;100920.69;5009428;28;20503;-50
2021/11/16 01:25:44;;;;;;;0.30;0.20;;;;;;;8.47;100.00;100917.94;5003569;28;20494;-49
2021/11/16 01:28:16;;;;;;;0.30;0.20;;;;;;;8.52;100.00;100913.50;5002527;28;20452;-50
2021/11/16 01:30:47;;;;;;;0.30;0.20;;;;;;;8.23;100.00;100921.69;5009512;28;20449;-50
2021/11/16 01:33:18;;;;;;;1.03;0.93;;;;;;;8.16;100.00;100912.03;5013111;28;20491;-50
2021/11/16 01:35:47;;;;;;;0.30;0.20;;;;;;;8.26;100.00;100919.00;5005735;28;20915;-50
2021/11/16 01:38:19;;;;;;;0.30;0.20;;;;;;;8.25;100.00;100919.91;5002793;28;20453;-50
2021/11/16 01:40:47;;;;;;;0.30;0.20;;;;;;;8.14;100.00;100913.81;5004631;28;20927;-50
2021/11/16 01:43:15;;;;;;;4.93;0.97;;;;;;;8.14;100.00;100915.56;5008970;28;20518;-50
2021/11/16 01:45:58;;;;;;;1.23;1.23;;;;;;;8.06;100.00;100918.28;5008911;28;20464;-50
2021/11/16 01:48:25;;;;;;;0.30;0.20;;;;;;;7.98;100.00;100906.88;5002799;28;20449;-50
2021/11/16 01:50:51;;;;;;;0.30;0.20;;;;;;;7.98;100.00;100914.84;5002010;28;21013;-50
2021/11/16 01:53:18;;;;;;;1.50;1.43;;;;;;;8.01;100.00;100912.16;5008651;28;20465;-50
2021/11/16 01:55:45;;;;;;;1.70;1.70;;;;;;;8.05;100.00;100905.94;5008871;28;20456;-50
2021/11/16 01:58:11;;;;;;;0.30;0.20;;;;;;;8.20;100.00;100910.22;5002497;28;20931;-51
2021/11/16 02:00:41;;;;;;;1.23;1.13;;;;;;;8.35;100.00;100906.56;5002980;28;20452;-50
2021/11/16 02:03:11;;;;;;;0.30;0.20;;;;;;;8.49;100.00;100908.19;5007436;28;20600;-50
2021/11/16 02:06:09;;;;;;;0.30;0.20;;;;;;;8.37;100.00;100900.41;5008492;28;20449;-50
2021/11/16 02:08:36;;;;;;;0.30;0.20;;;;;;;8.48;100.00;100909.09;5002750;28;20877;-50
2021/11/16 02:11:02;;;;;;;0.30;0.20;;;;;;;8.48;100.00;100903.78;4984301;28;20460;-50
2021/11/16 02:13:29;;;;;;;0.30;0.20;;;;;;;8.36;100.00;100896.00;5002116;28;20508;-50
2021/11/16 02:15:56;;;;;;;0.30;0.20;;;;;;;8.50;100.00;100898.50;5008516;28;20450;-50
2021/11/16 02:18:22;;;;;;;0.30;0.20;;;;;;;8.33;100.00;100894.19;5008198;28;20456;-50
2021/11/16 02:20:51;;;;;;;0.40;0.37;;;;;;;8.39;100.00;100893.31;5001770;28;20483;-50
2021/11/16 02:23:18;;;;;;;0.60;0.60;;;;;;;8.34;100.00;100892.47;4983842;28;20559;-51
2021/11/16 02:25:48;;;;;;;0.30;0.20;;;;;;;8.14;100.00;100883.81;5008134;28;20515;-49
2021/11/16 02:28:17;;;;;;;0.30;0.20;;;;;;;8.32;100.00;100888.91;5008494;28;20507;-50
2021/11/16 02:30:44;;;;;;;0.30;0.20;;;;;;;8.28;100.00;100882.78;5002710;28;20941;-50
2021/11/16 02:33:15;;;;;;;0.30;0.20;;;;;;;8.24;100.00;100891.66;5012861;28;20523;-49
2021/11/16 02:35:43;;;;;;;7.30;2.83;;;;;;;8.21;100.00;100888.13;5003617;28;20496;-50
2021/11/16 02:38:11;;;;;;;0.30;0.20;;;;;;;8.20;100.00;100884.59;5001046;28;20446;-50
2021/11/16 02:40:39;;;;;;;0.53;0.53;;;;;;;8.44;100.00;100887.94;5005546;28;20454;-50
2021/11/16 02:43:06;;;;;;;0.30;0.20;;;;;;;8.09;100.00;100880.34;5007634;28;20500;-50
2021/11/16 02:45:33;;;;;;;0.30;0.20;;;;;;;7.95;100.00;100883.97;5004256;28;20444;-49
2021/11/16 02:48:11;;;;;;;0.30;0.20;;;;;;;8.02;100.00;100888.31;5001074;28;20452;-50
2021/11/16 02:50:43;;;;;;;0.30;0.20;;;;;;;8.15;100.00;100885.56;5002910;28;20442;-50
2021/11/16 02:53:10;;;;;;;0.30;0.20;;;;;;;8.18;100.00;100881.09;5007800;28;20493;-49
2021/11/16 02:55:37;;;;;;;0.30;0.30;;;;;;;8.24;100.00;100878.41;5007313;28;20449;-50
2021/11/16 02:58:04;;;;;;;0.30;0.20;;;;;;;8.11;100.00;100868.81;5000679;28;20448;-50
2021/11/16 03:00:31;;;;;;;0.30;0.20;;;;;;;8.14;100.00;100874.09;5001650;28;20449;-51
2021/11/16 03:02:58;;;;;;;0.30;0.20;;;;;;;8.20;100.00;100874.00;5007554;28;20496;-50
2021/11/16 03:05:35;;;;;;;0.30;0.20;;;;;;;8.25;100.00;100866.06;4990339;28;20864;-50
2021/11/16 03:08:18;;;;;;;0.43;0.43;;;;;;;8.39;100.00;100865.94;5014103;28;20452;-50
2021/11/16 03:10:45;;;;;;;0.30;0.20;;;;;;;8.20;100.00;100871.38;5000761;28;20448;-50
2021/11/16 03:13:12;;;;;;;0.30;0.20;;;;;;;8.24;100.00;100864.28;5003084;28;20486;-51
2021/11/16 03:15:41;;;;;;;0.30;0.20;;;;;;;8.28;100.00;100858.06;5007357;28;20446;-50
2021/11/16 03:18:08;;;;;;;1.90;1.90;;;;;;;8.25;100.00;100863.41;5004943;28;20533;-50
2021/11/16 03:20:36;;;;;;;0.30;0.20;;;;;;;8.50;100.00;100867.59;5000030;28;20449;-50
2021/11/16 03:23:16;;;;;;;0.30;0.30;;;;;;;8.25;100.00;100858.97;5002048;28;20571;-50
2021/11/16 03:25:56;;;;;;;0.30;0.20;;;;;;;8.05;100.00;100852.97;5000789;28;20877;-50
2021/11/16 03:28:27;;;;;;;0.30;0.20;;;;;;;8.19;100.00;100850.19;5000492;28;20453;-50
2021/11/16 03:30:58;;;;;;;7.53;0.77;;;;;;;8.26;100.00;100852.78;5008039;28;20444;-50
2021/11/16 03:33:26;;;;;;;0.30;0.20;;;;;;;8.20;100.00;100847.53;5010102;28;20524;-50
2021/11/16 03:35:53;;;;;;;0.30;0.20;;;;;;;8.16;100.00;100851.13;5004076;28;20460;-50
2021/11/16 03:38:22;;;;;;;0.30;0.20;;;;;;;8.24;100.00;100851.06;5000481;28;20456;-50
2021/11/16 03:40:52;;;;;;;0.30;0.20;;;;;;;8.36;100.00;100847.41;5013709;28;20456;-50
2021/11/16 03:43:20;;;;;;;0.30;0.20;;;;;;;8.58;100.00;100835.69;5000292;28;20499;-50
2021/11/16 03:45:48;;;;;;;0.30;0.20;;;;;;;8.43;100.00;100842.03;5002199;28;20457;-50
2021/11/16 03:48:16;;;;;;;0.30;0.20;;;;;;;8.26;100.00;100847.50;5006752;28;20450;-50
2021/11/16 03:50:43;;;;;;;0.67;0.67;;;;;;;8.32;100.00;100839.47;5005330;28;20941;-50
2021/11/16 03:53:10;;;;;;;0.30;0.30;;;;;;;8.21;100.00;100832.53;4999682;28;20496;-49
2021/11/16 03:55:42;;;;;;;0.40;0.40;;;;;;;8.30;100.00;100843.03;5001036;28;20959;-50
2021/11/16 03:58:11;;;;;;;0.30;0.20;;;;;;;8.07;100.00;100839.72;5006643;28;21042;-50
2021/11/16 04:00:51;;;;;;;0.30;0.20;;;;;;;8.12;100.00;100830.00;5006450;28;20441;-49
2021/11/16 04:03:21;;;;;;;0.30;0.20;;;;;;;8.13;100.00;100834.38;4993268;28;20493;-50
2021/11/16 04:05:48;;;;;;;0.30;0.20;;;;;;;8.16;100.00;100829.94;5009486;28;20445;-50
2021/11/16 04:08:15;;;;;;;0.30;0.20;;;;;;;8.24;100.00;100844.00;5003504;28;20528;-50
2021/11/16 04:10:42;;;;;;;0.77;0.77;;;;;;;8.25;100.00;100842.22;4989088;28;20805;-50
2021/11/16 04:13:11;;;;;;;0.30;0.20;;;;;;;8.21;100.00;100841.34;5037381;23;21019;-49
2021/11/16 04:15:39;;;;;;;1.37;1.37;;;;;;;8.28;100.00;100829.81;5048638;28;20459;-49
2021/11/16 04:18:07;;;;;;;2.10;1.23;;;;;;;8.11;100.00;100830.88;5042859;28;20447;-49
2021/11/16 04:20:41;;;;;;;0.43;0.43;;;;;;;8.06;100.00;100830.91;5039056;28;20451;-49
2021/11/16 04:23:11;;;;;;;0.30;0.20;;;;;;;8.05;100.00;100833.56;5040452;28;20545;-49
2021/11/16 04:25:38;;;;;;;0.90;0.87;;;;;;;8.12;100.00;100827.34;5045504;28;20448;-48
2021/11/16 04:28:07;;;;;;;0.30;0.20;;;;;;;8.17;100.00;100822.88;5045366;28;20512;-49
2021/11/16 04:30:35;;;;;;;0.30;0.20;;;;;;;8.15;100.00;100827.31;5045248;28;20452;-49
2021/11/16 04:33:02;;;;;;;0.30;0.20;;;;;;;8.02;100.00;100822.13;5052128;28;20554;-49
2021/11/16 04:35:30;;;;;;;0.30;0.20;;;;;;;8.23;100.00;100823.69;5039285;28;20461;-49
2021/11/16 04:37:59;;;;;;;0.30;0.20;;;;;;;8.30;100.00;100817.44;5038891;28;20451;-48
2021/11/16 04:40:36;;;;;;;0.87;0.87;;;;;;;8.22;100.00;100818.38;5044775;28;20444;-49
2021/11/16 04:43:07;;;;;;;0.30;0.20;;;;;;;8.30;100.00;100819.19;5045418;28;20882;-49
2021/11/16 04:45:35;;;;;;;0.30;0.20;;;;;;;8.16;100.00;100815.81;5042230;28;20443;-49
2021/11/16 04:48:15;;;;;;;0.30;0.20;;;;;;;8.09;100.00;100824.72;5038767;28;20450;-49
2021/11/16 05:03:53;;;;;;;0.87;0.87;;;;;;;8.28;100.00;100823.63;5039465;28;21015;-49
2021/11/16 05:06:25;;;;;;;0.30;0.20;;;;;;;8.19;100.00;100821.06;5064237;28;20500;-49
2021/11/16 05:08:51;;;;;;;0.30;0.20;;;;;;;8.06;100.00;100819.44;5038227;28;20890;-48
2021/11/16 05:11:19;;;;;;;0.30;0.20;;;;;;;8.27;100.00;100817.47;5054490;28;20554;-49
2021/11/16 05:13:47;;;;;;;0.30;0.20;;;;;;;8.25;100.00;100827.19;5054657;28;20998;-49
2021/11/16 05:16:18;;;;;;;0.50;0.50;;;;;;;8.21;100.00;100825.47;5040385;28;20956;-48
2021/11/16 05:18:46;;;;;;;0.30;0.20;;;;;;;8.12;100.00;100822.94;5038936;28;20458;-48
2021/11/16 05:21:13;;;;;;;0.30;0.20;;;;;;;8.20;100.00;100830.78;5042242;28;20453;-48
2021/11/16 05:23:57;;;;;;;0.87;0.87;;;;;;;8.26;100.00;100818.38;5044828;28;20522;-49
2021/11/16 05:26:27;;;;;;;0.30;0.20;;;;;;;8.11;100.00;100829.13;5044376;28;20442;-49
2021/11/16 05:28:55;;;;;;;0.30;0.20;;;;;;;8.49;100.00;100818.13;5038247;28;20442;-48
2021/11/16 05:31:22;;;;;;;0.30;0.20;;;;;;;7.69;100.00;100825.97;5045742;28;20450;-48
2021/11/16 05:33:50;;;;;;;0.30;0.20;;;;;;;7.81;100.00;100826.72;5038433;28;20555;-48
2021/11/16 05:36:18;;;;;;;0.50;0.50;;;;;;;7.97;100.00;100821.31;5038330;28;20455;-49
2021/11/16 05:38:47;;;;;;;0.33;0.33;;;;;;;8.20;100.00;100826.34;5044299;28;20495;-49
2021/11/16 05:41:15;;;;;;;2.17;1.33;;;;;;;7.94;100.00;100821.31;5046099;28;20508;-49
2021/11/16 05:43:44;;;;;;;0.30;0.20;;;;;;;7.92;100.00;100819.56;5043162;28;20911;-49
2021/11/16 05:46:12;;;;;;;0.30;0.20;;;;;;;8.16;100.00;100823.75;5041848;28;20514;-48
2021/11/16 05:48:40;;;;;;;0.30;0.20;;;;;;;7.99;100.00;100822.16;5046847;28;20886;-48
2021/11/16 05:51:09;;;;;;;0.30;0.20;;;;;;;7.83;100.00;100820.56;5048469;28;20838;-49
2021/11/16 05:53:38;;;;;;;1.83;1.70;;;;;;;7.90;100.00;100831.94;5044188;28;20524;-49
2021/11/16 05:56:05;;;;;;;0.30;0.20;;;;;;;7.92;100.00;100822.22;5041421;28;20517;-49
2021/11/16 05:58:31;;;;;;;0.30;0.20;;;;;;;7.97;100.00;100821.31;5045506;28;20901;-49
2021/11/16 06:00:58;;;;;;;0.30;0.20;;;;;;;8.15;100.00;100820.25;5051096;28;20485;-49
2021/11/16 06:03:25;;;;;;;0.30;0.20;;;;;;;8.16;100.00;100824.63;5045307;28;20478;-49
2021/11/16 06:05:52;;;;;;;0.50;0.50;;;;;;;8.09;100.00;100833.56;5065190;28;20946;-49
2021/11/16 06:08:24;;;;;;;0.30;0.20;;;;;;;7.96;100.00;100831.91;5044383;28;20452;-49
2021/11/16 06:10:53;;;;;;;0.30;0.27;;;;;;;7.97;100.00;100831.00;5051740;28;20520;-49
2021/11/16 06:13:20;;;;;;;0.30;0.20;;;;;;;7.90;100.00;100838.13;5062900;28;20525;-49
2021/11/16 06:15:46;;;;;;;0.30;0.20;;;;;;;8.19;100.00;100839.63;5041392;28;20443;-48
2021/11/16 06:18:13;;;;;;;1.80;1.70;;;;;;;7.98;100.00;100836.28;5042825;28;20455;-49
2021/11/16 06:20:43;;;;;;;0.30;0.20;;;;;;;7.98;100.00;100849.53;5047769;28;20452;-49
2021/11/16 06:23:11;;;;;;;0.67;0.67;;;;;;;8.20;100.00;100854.59;5046824;28;20576;-49
2021/11/16 06:25:39;;;;;;;0.30;0.20;;;;;;;8.20;100.00;100852.84;5041228;28;20907;-49
2021/11/16 06:28:07;;;;;;;0.40;0.40;;;;;;;8.14;100.00;100854.69;5041677;28;20452;-49
2021/11/16 06:30:34;;;;;;;0.30;0.20;;;;;;;8.06;100.00;100860.03;5048285;28;20838;-49
2021/11/16 06:33:02;;;;;;;0.30;0.20;;;;;;;7.96;100.00;100856.63;5054190;28;20835;-48
2021/11/16 06:35:29;;;;;;;0.30;0.20;;;;;;;7.99;100.00;100861.88;5040985;28;20447;-49
2021/11/16 06:37:55;;;;;;;0.30;0.20;;;;;;;8.09;100.00;100864.44;5040548;28;20494;-49
2021/11/16 06:40:22;;;;;;;0.30;0.20;;;;;;;7.99;100.00;100866.28;5041226;28;20947;-49
2021/11/16 06:42:49;;;;;;;0.30;0.20;;;;;;;7.93;100.00;100874.25;5040888;28;20467;-49
2021/11/16 06:45:16;;;;;;;0.30;0.27;;;;;;;8.28;100.00;100866.88;5046722;28;20502;-52
2021/11/16 06:47:44;;;;;;;0.30;0.30;;;;;;;8.04;100.00;100875.06;5047759;28;20798;-50
2021/11/16 06:50:11;;;;;;;0.30;0.20;;;;;;;8.16;100.00;100876.72;5041803;28;20939;-51
2021/11/16 06:52:38;;;;;;;0.30;0.20;;;;;;;8.36;100.00;100880.09;5039689;28;20471;-50
2021/11/16 06:55:08;;;;;;;0.30;0.20;;;;;;;8.01;100.00;100885.69;5046919;28;20531;-52
2021/11/16 06:57:35;;;;;;;0.30;0.20;;;;;;;7.96;100.00;100892.78;5047434;28;20450;-51
2021/11/16 07:00:06;;;;;;;0.30;0.20;;;;;;;8.00;100.00;100892.75;5042068;28;20504;-52
2021/11/16 07:02:33;;;;;;;0.30;0.20;;;;;;;8.03;100.00;100898.00;5051221;28;20820;-52
2021/11/16 07:05:08;;;;;;;0.30;0.20;;;;;;;7.92;100.00;100897.22;5053441;28;20473;-52
2021/11/16 07:07:45;;;;;;;0.30;0.20;;;;;;;7.97;100.00;100900.72;5052273;28;20512;-52
2021/11/16 07:10:17;;;;;;;1.03;1.03;;;;;;;7.95;100.00;100904.28;5046169;28;20443;-52
2021/11/16 07:12:43;;;;;;;0.30;0.20;;;;;;;7.99;100.00;100901.59;5061447;28;20548;-48
2021/11/16 07:15:12;;;;;;;0.30;0.20;;;;;;;7.98;100.00;100898.94;5040538;28;20497;-49
2021/11/16 07:17:39;;;;;;;0.30;0.20;;;;;;;7.90;100.00;100904.28;5040374;28;20455;-49
2021/11/16 07:20:07;;;;;;;0.83;0.83;;;;;;;7.97;100.00;100897.19;5040237;28;20456;-49
2021/11/16 07:22:36;;;;;;;0.47;0.47;;;;;;;8.03;100.00;100905.06;5046253;28;20518;-49
2021/11/16 07:25:12;;;;;;;0.93;0.93;;;;;;;8.04;100.00;100893.59;5046892;28;20540;-49
2021/11/16 07:27:51;;;;;;;0.50;0.50;;;;;;;8.16;100.00;100892.59;5042374;28;20861;-49
2021/11/16 07:30:25;;;;;;;0.67;0.67;;;;;;;8.13;100.00;100897.94;5039785;28;20787;-49
2021/11/16 07:32:54;;;;;;;0.30;0.20;;;;;;;8.04;100.00;100901.53;5053292;28;20462;-48
2021/11/16 07:35:27;;;;;;;0.30;0.20;;;;;;;8.03;100.00;100900.66;5039896;28;20958;-49
2021/11/16 07:37:57;;;;;;;1.03;0.93;;;;;;;8.06;100.00;100902.38;5040399;28;20448;-49
2021/11/16 07:40:25;;;;;;;0.30;0.20;;;;;;;8.14;100.00;100899.69;5040702;28;20459;-49
2021/11/16 07:42:53;;;;;;;0.30;0.20;;;;;;;8.18;100.00;100894.34;5039769;28;20507;-49
2021/11/16 07:45:23;;;;;;;1.23;1.23;;;;;;;8.22;100.00;100897.84;5045361;28;20491;-49
2021/11/16 07:47:56;;;;;;;0.30;0.20;;;;;;;8.28;100.00;100897.78;5046212;28;20443;-49
2021/11/16 07:50:32;;;;;;;0.30;0.20;;;;;;;8.37;100.00;100895.09;5042548;28;20486;-49
2021/11/16 07:53:24;;;;;;;0.30;0.20;;;;;;;8.32;100.00;100902.16;5039576;28;20474;-49
2021/11/16 07:55:51;;;;;;;0.30;0.20;;;;;;;8.31;100.00;100901.28;5039508;28;20493;-49
2021/11/16 07:58:17;;;;;;;0.40;0.37;;;;;;;8.17;100.00;100905.81;5045270;28;20885;-48
2021/11/16 08:00:47;;;;;;;0.30;0.20;;;;;;;8.18;100.00;100901.41;5046980;28;20446;-49
2021/11/16 08:03:25;;;;;;;0.30;0.20;;;;;;;8.26;100.00;100904.88;5044182;28;20976;-49
2021/11/16 08:11:05;;;;;;;0.30;0.20;;;;;;;8.16;100.00;100897.91;5048974;28;20538;-49
2021/11/16 08:13:34;;;;;;;0.30;0.20;;;;;;;8.15;100.00;100890.84;5058487;28;20483;-49
2021/11/16 08:16:09;;;;;;;0.40;0.40;;;;;;;8.14;100.00;100889.09;5039811;28;20499;-49
2021/11/16 08:18:53;;;;;;;1.10;1.07;;;;;;;8.18;100.00;100894.34;5039429;28;20486;-49
2021/11/16 08:21:20;;;;;;;0.30;0.20;;;;;;;8.14;100.00;100887.31;5042026;28;20443;-52
2021/11/16 08:23:54;;;;;;;0.30;0.20;;;;;;;8.00;100.00;100891.88;5045688;28;20503;-51
2021/11/16 08:26:25;;;;;;;21.07;1.90;;;;;;;8.07;100.00;100892.69;5044966;28;20573;-51
2021/11/16 08:28:53;;;;;;;0.57;0.57;;;;;;;8.24;100.00;100888.13;5039183;28;20442;-51
2021/11/16 08:31:20;;;;;;;1.43;1.43;;;;;;;8.45;100.00;100895.00;5045833;28;20486;-50
2021/11/16 08:33:51;;;;;;;0.30;0.20;;;;;;;8.54;100.00;100889.63;5039168;28;20536;-52
2021/11/16 08:36:24;;;;;;;1.07;1.07;;;;;;;8.43;100.00;100894.16;5039054;28;20448;-52
2021/11/16 08:38:52;;;;;;;0.43;0.43;;;;;;;8.38;100.00;100894.22;5043968;28;20505;-51
2021/11/16 08:41:39;;;;;;;0.30;0.20;;;;;;;8.33;100.00;100894.19;5045599;28;20455;-52
2021/11/16 08:44:12;;;;;;;0.30;0.20;;;;;;;8.33;100.00;100895.97;5044472;28;20512;-51
2021/11/16 08:46:42;;;;;;;0.30;0.20;;;;;;;8.25;100.00;100892.53;5038840;28;20447;-52
2021/11/16 08:49:20;;;;;;;2.10;1.23;;;;;;;8.38;100.00;100890.69;5038845;28;20551;-51
2021/11/16 08:51:48;;;;;;;0.30;0.20;;;;;;;8.41;100.00;100895.94;5043713;28;20510;-52
2021/11/16 08:54:24;;;;;;;0.30;0.20;;;;;;;8.38;100.00;100890.69;5045685;28;20498;-52
2021/11/16 08:56:51;;;;;;;0.30;0.20;;;;;;;8.41;100.00;100893.28;5042297;28;20950;-51
2021/11/16 08:59:21;;;;;;;0.30;0.20;;;;;;;8.52;100.00;100892.28;5038558;28;20956;-52
2021/11/16 09:02:02;;;;;;;0.30;0.20;;;;;;;8.50;100.00;100891.44;5052326;28;20500;-52
2021/11/16 09:04:32;;;;;;;0.30;0.20;;;;;;;8.69;100.00;100896.53;5044194;28;20577;-52
2021/11/16 09:07:01;;;;;;;0.30;0.20;;;;;;;8.63;100.00;100893.94;5059322;28;20450;-52
2021/11/16 09:09:28;;;;;;;0.30;0.20;;;;;;;8.46;100.00;100889.69;5038644;28;21097;-51
2021/11/16 09:12:05;;;;;;;0.30;0.20;;;;;;;8.39;100.00;100892.44;5059413;28;20507;-50
2021/11/16 09:14:32;;;;;;;0.30;0.20;;;;;;;8.65;100.00;100892.16;5040026;28;20474;-52
2021/11/16 09:17:10;;;;;;;11.43;1.30;;;;;;;8.58;100.00;100892.22;5040937;28;20516;-52
2021/11/16 09:19:37;;;;;;;0.30;0.20;;;;;;;8.52;100.00;100888.78;5046186;28;20451;-52
2021/11/16 09:22:04;;;;;;;0.30;0.20;;;;;;;8.82;100.00;100884.88;5049006;28;20447;-52
2021/11/16 09:24:37;;;;;;;0.30;0.20;;;;;;;8.61;100.00;100894.81;5046307;28;20532;-52
2021/11/16 09:29:37;;;;;;;2.00;1.87;;;;;;;8.85;100.00;100882.19;5044085;28;20924;-51
2021/11/16 09:32:10;;;;;;;0.30;0.20;;;;;;;8.72;100.00;100881.47;5054312;28;20491;-51
2021/11/16 09:34:42;;;;;;;0.30;0.20;;;;;;;8.85;100.00;100884.84;5042868;28;20455;-52
2021/11/16 09:37:14;;;;;;;0.30;0.20;;;;;;;8.55;100.00;100891.38;5043409;28;20500;-51
2021/11/16 09:39:56;;;;;;;2.30;1.30;;;;;;;8.51;100.00;100887.00;5042009;28;20452;-52
2021/11/16 09:42:30;;;;;;;0.30;0.20;;;;;;;8.38;100.00;100896.84;5045517;28;20796;-52
2021/11/16 09:45:04;;;;;;;0.30;0.20;;;;;;;8.33;100.00;100885.38;5048946;28;20540;-52
2021/11/16 09:47:34;;;;;;;2.00;1.90;;;;;;;8.52;100.00;100892.28;5047246;28;20450;-51
2021/11/16 09:50:08;;;;;;;0.30;0.20;;;;;;;8.53;100.00;100899.34;5041881;28;20496;-51
2021/11/16 09:52:51;;;;;;;0.30;0.20;;;;;;;8.81;100.00;100891.09;5042005;28;20467;-51
2021/11/16 09:55:27;;;;;;;0.30;0.20;;;;;;;8.71;100.00;100887.66;5046638;28;20440;-51
2021/11/16 09:58:04;;;;;;;0.30;0.20;;;;;;;8.73;100.00;100888.50;5048849;28;20471;-51
2021/11/16 10:00:34;;;;;;;0.40;0.40;;;;;;;8.73;100.00;100890.28;5046965;28;20447;-52
2021/11/16 10:03:27;;;;;;;0.30;0.20;;;;;;;8.75;100.00;100888.50;5049838;28;20467;-52
2021/11/16 10:05:58;;;;;;;0.30;0.20;;;;;;;8.79;100.00;100900.84;5062035;28;20490;-52
2021/11/16 10:08:27;;;;;;;0.30;0.20;;;;;;;8.83;100.00;100892.81;5044042;28;20444;-52
2021/11/16 10:10:57;;;;;;;0.30;0.20;;;;;;;8.60;100.00;100895.72;5052532;28;20937;-51
2021/11/16 10:13:30;;;;;;;0.87;0.87;;;;;;;8.51;100.00;100903.78;5083189;22;20497;-52
2021/11/16 10:16:02;;;;;;;0.30;0.20;;;;;;;8.59;100.00;100901.91;5075025;28;20442;-52
2021/11/16 10:18:37;;;;;;;0.30;0.20;;;;;;;8.42;100.00;100903.88;5074419;28;20461;-52
2021/11/16 10:21:07;;;;;;;0.83;0.83;;;;;;;8.38;100.00;100901.28;5074893;28;20456;-52
2021/11/16 10:23:45;;;;;;;0.30;0.20;;;;;;;8.39;100.00;100901.25;5071655;28;20473;-52
2021/11/16 10:26:12;;;;;;;19.57;1.50;;;;;;;8.44;100.00;100895.91;5065200;28;20534;-52
2021/11/16 10:28:41;;;;;;;0.30;0.20;;;;;;;8.50;100.00;100893.22;5060644;28;20441;-51
2021/11/16 10:31:09;;;;;;;0.40;0.40;;;;;;;8.54;100.00;100892.28;5063845;28;20450;-52
2021/11/16 10:33:45;;;;;;;0.40;0.40;;;;;;;8.49;100.00;100884.34;5067595;28;20467;-52
2021/11/16 10:36:14;;;;;;;1.27;0.97;;;;;;;8.50;100.00;100883.50;5066987;28;20844;-51
2021/11/16 10:38:45;;;;;;;0.30;0.20;;;;;;;8.35;100.00;100880.97;5054677;28;20458;-52
2021/11/16 10:41:21;;;;;;;0.30;0.20;;;;;;;8.55;100.00;100873.72;5067484;28;20529;-52
2021/11/16 10:43:54;;;;;;;0.30;0.20;;;;;;;8.72;100.00;100862.91;5062860;28;20519;-52
2021/11/16 10:46:24;;;;;;;0.40;0.40;;;;;;;8.34;100.00;100871.25;5060429;28;20491;-52
2021/11/16 10:48:54;;;;;;;0.30;0.30;;;;;;;8.38;100.00;100867.72;5064508;28;20443;-51
2021/11/16 10:51:31;;;;;;;0.30;0.20;;;;;;;8.45;100.00;100869.41;5049778;28;21003;-52
2021/11/16 10:53:59;;;;;;;2.57;2.13;;;;;;;8.36;100.00;100865.94;5065441;28;20522;-51
2021/11/16 10:56:33;;;;;;;0.30;0.20;;;;;;;8.36;100.00;100856.25;5060156;28;20935;-51
2021/11/16 10:59:15;;;;;;;0.87;0.87;;;;;;;8.46;100.00;100847.31;5060762;28;20810;-52
2021/11/16 11:01:50;;;;;;;0.70;0.70;;;;;;;8.59;100.00;100846.28;5052782;28;20450;-52
2021/11/16 11:04:26;;;;;;;0.30;0.20;;;;;;;8.75;100.00;100843.44;5057013;28;20541;-52
2021/11/16 11:06:53;;;;;;;0.30;0.20;;;;;;;8.50;100.00;100846.41;5065727;28;20531;-52
2021/11/16 11:09:22;;;;;;;7.63;2.47;;;;;;;8.63;100.00;100844.44;5060232;28;20446;-52
2021/11/16 11:11:51;;;;;;;0.30;0.20;;;;;;;8.46;100.00;100842.00;5060864;28;20458;-52
2021/11/16 11:14:20;;;;;;;0.30;0.20;;;;;;;8.83;100.00;100846.88;5067302;28;20501;-52
2021/11/16 11:17:06;;;;;;;0.30;0.20;;;;;;;8.53;100.00;100838.41;5066533;28;20454;-52
2021/11/16 11:19:35;;;;;;;0.30;0.20;;;;;;;8.47;100.00;100829.63;5052095;28;20449;-51
2021/11/16 11:25:34;;;;;;;0.30;0.20;;;;;;;8.53;100.00;100835.75;5054929;28;20498;-51
2021/11/16 11:28:09;;;;;;;0.30;0.20;;;;;;;8.57;100.00;100840.13;5061610;28;20455;-51
2021/11/16 11:30:35;;;;;;;0.30;0.20;;;;;;;8.54;100.00;100844.59;5066678;28;20443;-51
2021/11/16 11:33:02;;;;;;;0.30;0.20;;;;;;;8.47;100.00;100835.81;5066339;28;20501;-51
2021/11/16 11:35:30;;;;;;;0.30;0.20;;;;;;;8.59;100.00;100835.66;5059397;28;20951;-51
2021/11/16 11:38:08;;;;;;;0.30;0.20;;;;;;;8.48;100.00;100832.25;5072981;28;20812;-51
2021/11/16 11:40:39;;;;;;;1.07;0.87;;;;;;;8.69;100.00;100831.16;5064520;28;20520;-51
2021/11/16 11:43:08;;;;;;;0.87;0.87;;;;;;;8.89;100.00;100833.53;5066396;28;20491;-52
2021/11/16 11:45:38;;;;;;;0.30;0.20;;;;;;;8.75;100.00;100832.84;5062057;28;20482;-51
2021/11/16 11:48:18;;;;;;;0.30;0.20;;;;;;;8.78;100.00;100824.88;5056128;28;20451;-51
2021/11/16 11:50:50;;;;;;;0.30;0.20;;;;;;;8.78;100.00;100825.75;5064906;28;20453;-51
2021/11/16 11:53:38;;;;;;;0.30;0.20;;;;;;;8.57;100.00;100823.34;5059285;28;20466;-51
2021/11/16 11:56:11;;;;;;;0.30;0.20;;;;;;;8.65;100.00;100826.78;5059606;28;20481;-52
2021/11/16 11:58:43;;;;;;;0.30;0.20;;;;;;;8.77;100.00;100817.78;5063398;28;20450;-51
2021/11/16 12:01:20;;;;;;;0.30;0.20;;;;;;;8.58;100.00;100818.03;5061791;28;20442;-51
2021/11/16 12:03:48;;;;;;;0.30;0.20;;;;;;;8.84;100.00;100811.53;5064519;28;20519;-51